M/T Vemaoil Xi — 9HWD7 — position and weather

sailwx.info

Track history (hours):
 
Tides and Currents Weather Stations Pressure Air Temp Water Temp Dewpoint Dewpoint Depression Visibility Wind Speed Wind Dir Waves Ship Positions

M/T Vemaoil Xi

Last reported at 2017-Aug-17 04:26 UTC. Time now 2017-Aug-17 06:04 UTC.
Position N 35°49' E 014°33'.

Length 105 m; draft 4.8 m.

Type: Tanker. MMSI: 215631000.

Date/timePositionNaut miles runAvg speedWind from/ knotsBaromVisibWave heightAir tempDewpointWater temp
2017-Aug-17 04:26N 35°49' E 014°33'1 2.5
2017-Aug-17 04:00N 35°49' E 014°34'1 2.5
2017-Aug-17 03:30N 35°49' E 014°35'0 0.0
2017-Aug-17 03:00N 35°49' E 014°35'0 0.0
2017-Aug-17 02:30N 35°49' E 014°35'0 0.0
2017-Aug-17 01:57N 35°49' E 014°35'0 0.0
2017-Aug-17 01:30N 35°49' E 014°35'0 0.0
2017-Aug-17 01:00N 35°49' E 014°35'0 0.0
2017-Aug-17 00:30N 35°49' E 014°35'0 0.0
2017-Aug-17 00:00N 35°49' E 014°35'0 0.0
2017-Aug-16 23:30N 35°49' E 014°35'0 0.0
2017-Aug-16 23:00N 35°49' E 014°35'0 0.0
2017-Aug-16 22:30N 35°49' E 014°35'0 0.0
2017-Aug-16 21:57N 35°49' E 014°35'0 0.0
2017-Aug-16 21:30N 35°49' E 014°36'0 0.1
2017-Aug-16 21:00N 35°49' E 014°36'0 0.1
2017-Aug-16 20:30N 35°49' E 014°36'1 1.9
2017-Aug-16 20:00N 35°49' E 014°37'4 7.3
2017-Aug-16 19:30N 35°50' E 014°41'4 7.8
2017-Aug-16 19:00N 35°51' E 014°45'1 0.9
2017-Aug-16 17:44N 35°52' E 014°47'0 0.0
2017-Aug-16 17:17N 35°52' E 014°47'0 0.0
2017-Aug-16 16:59N 35°52' E 014°47'0 0.1
2017-Aug-16 16:08N 35°52' E 014°47'0 0.2
2017-Aug-16 15:59N 35°52' E 014°47'0 0.2
2017-Aug-16 15:26N 35°52' E 014°47'0 0.1
2017-Aug-16 14:59N 35°52' E 014°47'0 0.0
2017-Aug-16 14:23N 35°52' E 014°47'0 0.1
2017-Aug-16 13:53N 35°52' E 014°47'0 0.0
2017-Aug-16 13:29N 35°52' E 014°47'0 0.0
2017-Aug-16 12:53N 35°52' E 014°47'0 0.0
2017-Aug-16 12:29N 35°52' E 014°47'0 0.0
2017-Aug-16 11:59N 35°52' E 014°47'0 0.0
2017-Aug-16 11:29N 35°52' E 014°47'0 0.0
2017-Aug-16 10:59N 35°52' E 014°47'0 0.0
2017-Aug-16 10:26N 35°52' E 014°47'0 0.0
2017-Aug-16 09:59N 35°52' E 014°47'0 0.0
2017-Aug-16 09:29N 35°52' E 014°47'0 0.0
2017-Aug-16 08:56N 35°52' E 014°47'0 0.0
2017-Aug-16 08:29N 35°52' E 014°47'0 0.0
2017-Aug-16 07:59N 35°52' E 014°47'0 0.0
2017-Aug-16 07:29N 35°52' E 014°47'0 0.0
2017-Aug-16 06:59N 35°52' E 014°47'0 0.0
2017-Aug-16 06:26N 35°52' E 014°47'0 0.1
2017-Aug-16 05:59N 35°52' E 014°47'0 1.0
2017-Aug-16 05:30N 35°52' E 014°46'1 2.1
2017-Aug-16 04:53N 35°52' E 014°45'0 0.0
2017-Aug-16 04:23N 35°52' E 014°45'0 0.0
2017-Aug-16 03:59N 35°52' E 014°45'0 0.0
2017-Aug-16 00:26N 35°52' E 014°45'0 0.0
2017-Aug-15 23:59N 35°52' E 014°45'0 0.0
2017-Aug-15 22:53N 35°52' E 014°45'0 0.0
2017-Aug-15 21:47N 35°52' E 014°45'0 0.0
2017-Aug-15 21:26N 35°52' E 014°45'0 0.0
2017-Aug-15 20:59N 35°52' E 014°45'0 0.1
2017-Aug-15 20:29N 35°52' E 014°44'0 0.0
2017-Aug-15 19:35N 35°52' E 014°45'0 0.1
2017-Aug-15 19:29N 35°52' E 014°45'0 0.0
2017-Aug-15 18:59N 35°52' E 014°45'0 0.0
2017-Aug-15 18:29N 35°52' E 014°45'0 0.0
2017-Aug-15 17:59N 35°52' E 014°45'0 0.0
2017-Aug-15 17:29N 35°52' E 014°45'0 0.0
2017-Aug-15 16:59N 35°52' E 014°45'0 0.0
2017-Aug-15 16:26N 35°52' E 014°45'0 0.0
2017-Aug-15 15:20N 35°52' E 014°45'0 0.0
2017-Aug-15 14:08N 35°52' E 014°44'0 0.1
2017-Aug-15 13:59N 35°52' E 014°44'0 0.0
2017-Aug-15 13:29N 35°52' E 014°44'0 0.0
2017-Aug-15 12:08N 35°52' E 014°44'0 0.1
2017-Aug-15 11:59N 35°52' E 014°44'0 0.0
2017-Aug-15 11:17N 35°52' E 014°44'0 0.1
2017-Aug-15 10:35N 35°52' E 014°45'0 0.4
2017-Aug-15 10:24N 35°52' E 014°45'2 4.6
2017-Aug-15 10:00N 35°52' E 014°47'1 0.3
2017-Aug-15 06:26N 35°52' E 014°48'0 0.0
2017-Aug-15 05:43N 35°53' E 014°48'0 0.1
2017-Aug-15 05:29N 35°53' E 014°48'0 0.0
2017-Aug-15 04:26N 35°52' E 014°48'1 2.6
2017-Aug-15 03:58N 35°51' E 014°47'2 1.7
2017-Aug-15 03:02N 35°50' E 014°46'0 5.5
2017-Aug-15 03:00N 35°50' E 014°46'4 6.5
2017-Aug-15 02:25N 35°49' E 014°41'5 3.7
2017-Aug-15 01:10N 35°49' E 014°35'0 0.0
2017-Aug-14 20:07N 35°49' E 014°35'0 0.2
2017-Aug-14 20:00N 35°49' E 014°35'2 2.7
2017-Aug-14 19:26N 35°50' E 014°36'3 6.9
2017-Aug-14 18:59N 35°53' E 014°37'3 7.0
2017-Aug-14 18:30N 35°55' E 014°41'3 4.9
2017-Aug-14 17:56N 35°54' E 014°45'0 0.0
2017-Aug-14 17:30N 35°54' E 014°45'0 0.0
2017-Aug-14 16:59N 35°54' E 014°45'0 0.0
2017-Aug-14 16:23N 35°54' E 014°45'0 0.0
2017-Aug-14 15:56N 35°54' E 014°45'0 0.0
2017-Aug-14 15:28N 35°54' E 014°45'0 0.0
2017-Aug-14 14:22N 35°54' E 014°45'0 0.0
2017-Aug-14 13:46N 35°54' E 014°45'0 0.1
2017-Aug-14 13:27N 35°54' E 014°45'2 2.8
2017-Aug-14 12:50N 35°53' E 014°44'2 6.4
2017-Aug-14 12:30N 35°51' E 014°42'3 6.1
2017-Aug-14 11:59N 35°49' E 014°39'5 0.3
2017-Aug-13 17:18N 35°49' E 014°33'1 0.1
2017-Aug-13 06:57N 35°49' E 014°34'2 0.1
2017-Aug-12 18:17N 35°49' E 014°36'0 0.0
2017-Aug-12 17:59N 35°49' E 014°36'0 0.0
2017-Aug-12 17:29N 35°49' E 014°36'0 0.2
2017-Aug-12 16:56N 35°49' E 014°36'1 0.5
2017-Aug-12 15:43N 35°49' E 014°35'0 0.0
2017-Aug-12 14:46N 35°49' E 014°35'0 0.0
2017-Aug-12 14:22N 35°49' E 014°35'0 0.0
2017-Aug-12 13:58N 35°49' E 014°35'0 0.0
2017-Aug-12 13:28N 35°49' E 014°35'1 0.5
2017-Aug-12 11:36N 35°49' E 014°36'0 0.0
2017-Aug-12 10:39N 35°49' E 014°36'0 0.0
2017-Aug-12 10:27N 35°49' E 014°36'0 0.0
2017-Aug-12 09:51N 35°49' E 014°36'0 0.0
2017-Aug-12 09:27N 35°49' E 014°36'0 0.0
2017-Aug-12 06:30N 35°49' E 014°36'0 0.0
2017-Aug-12 06:00N 35°49' E 014°36'0 0.0
2017-Aug-12 05:30N 35°49' E 014°36'0 0.1
2017-Aug-12 05:00N 35°49' E 014°36'0 0.1
2017-Aug-12 04:30N 35°49' E 014°36'0 0.1
2017-Aug-12 04:00N 35°50' E 014°36'1 1.1
2017-Aug-12 03:30N 35°49' E 014°36'0 0.8
2017-Aug-12 02:58N 35°49' E 014°35'0 0.0
2017-Aug-12 02:25N 35°49' E 014°35'0 0.0
2017-Aug-12 01:19N 35°49' E 014°35'0 0.1
2017-Aug-12 00:58N 35°49' E 014°35'0 0.1
2017-Aug-12 00:28N 35°49' E 014°35'1 0.2
2017-Aug-11 21:21N 35°49' E 014°36'0 0.7
2017-Aug-11 20:47N 35°50' E 014°36'0 0.1
2017-Aug-11 20:29N 35°50' E 014°36'0 0.1
2017-Aug-11 19:59N 35°50' E 014°36'0 0.1
2017-Aug-11 19:23N 35°50' E 014°36'0 0.1
2017-Aug-11 18:59N 35°50' E 014°36'0 0.1
2017-Aug-11 18:29N 35°50' E 014°36'0 0.1
2017-Aug-11 17:59N 35°50' E 014°36'0 0.2
2017-Aug-11 17:26N 35°50' E 014°36'0 1.0
2017-Aug-11 17:00N 35°50' E 014°36'0 0.8
2017-Aug-11 16:25N 35°50' E 014°36'0 0.0
2017-Aug-11 15:58N 35°50' E 014°36'0 0.0
2017-Aug-11 15:28N 35°50' E 014°36'1 1.1
2017-Aug-11 15:01N 35°50' E 014°36'3 6.7
2017-Aug-11 14:30N 35°50' E 014°41'7 6.7
2017-Aug-11 13:31N 35°53' E 014°48'0 0.3
2017-Aug-11 12:56N 35°53' E 014°48'0 0.2
2017-Aug-11 12:30N 35°53' E 014°48'3 5.2
2017-Aug-11 12:00N 35°51' E 014°46'3 6.2
2017-Aug-11 11:30N 35°49' E 014°42'3 6.5
2017-Aug-11 11:00N 35°49' E 014°39'4 6.7
2017-Aug-11 10:28N 35°48' E 014°34'1 0.1
2017-Aug-10 20:50N 35°49' E 014°33'1 1.5
2017-Aug-10 20:28N 35°49' E 014°33'2 4.5
2017-Aug-10 20:00N 35°49' E 014°36'2 3.9
2017-Aug-10 19:30N 35°49' E 014°38'4 7.4
2017-Aug-10 19:00N 35°51' E 014°42'4 7.4
2017-Aug-10 18:30N 35°53' E 014°46'1 1.0
2017-Aug-10 17:58N 35°53' E 014°47'0 0.0
2017-Aug-10 17:28N 35°53' E 014°47'0 0.0
2017-Aug-10 16:58N 35°53' E 014°47'0 0.0
2017-Aug-10 16:28N 35°53' E 014°47'0 0.0
2017-Aug-10 15:55N 35°53' E 014°47'0 0.0
2017-Aug-10 15:28N 35°53' E 014°47'0 0.0
2017-Aug-10 14:58N 35°53' E 014°47'0 0.0
2017-Aug-10 14:25N 35°53' E 014°47'0 0.0
2017-Aug-10 13:55N 35°53' E 014°47'0 0.0
2017-Aug-10 13:28N 35°53' E 014°47'0 0.0
2017-Aug-10 12:58N 35°53' E 014°47'0 0.0
2017-Aug-10 12:28N 35°53' E 014°47'0 0.0
2017-Aug-10 11:58N 35°53' E 014°47'0 0.0
2017-Aug-10 11:28N 35°53' E 014°47'0 0.0
2017-Aug-10 10:58N 35°53' E 014°47'1 2.0
2017-Aug-10 10:30N 35°52' E 014°46'4 8.0
2017-Aug-10 10:00N 35°50' E 014°42'4 8.1
2017-Aug-10 09:30N 35°49' E 014°37'4 7.2
2017-Aug-10 09:00N 35°49' E 014°33'0 1.0
2017-Aug-10 08:30N 35°49' E 014°32'0 0.0
2017-Aug-10 07:57N 35°49' E 014°32'0 0.0
2017-Aug-10 07:30N 35°49' E 014°32'0 0.0
2017-Aug-10 06:48N 35°49' E 014°32'0 0.0
2017-Aug-10 06:21N 35°49' E 014°32'0 0.1
2017-Aug-10 06:00N 35°49' E 014°32'0 0.0
2017-Aug-10 01:27N 35°49' E 014°32'2 4.6
2017-Aug-10 01:00N 35°49' E 014°35'1 1.1
2017-Aug-10 00:29N 35°49' E 014°35'0 0.0
2017-Aug-09 23:17N 35°49' E 014°35'0 0.0
2017-Aug-09 22:44N 35°49' E 014°35'0 0.0
2017-Aug-09 22:29N 35°49' E 014°35'0 0.0
2017-Aug-09 21:59N 35°49' E 014°35'0 0.0
2017-Aug-09 21:29N 35°49' E 014°35'0 0.0
2017-Aug-09 20:59N 35°49' E 014°35'0 0.0
2017-Aug-09 20:26N 35°49' E 014°35'0 0.0
2017-Aug-09 19:59N 35°49' E 014°35'0 0.0
2017-Aug-09 19:29N 35°49' E 014°35'0 0.0
2017-Aug-09 18:59N 35°49' E 014°35'0 0.1
2017-Aug-09 18:29N 35°49' E 014°35'1 1.8
2017-Aug-09 18:00N 35°49' E 014°34'1 2.5
2017-Aug-09 17:28N 35°49' E 014°33'0 0.0
2017-Aug-09 16:58N 35°49' E 014°33'0 0.0
2017-Aug-09 16:28N 35°49' E 014°33'0 0.0
2017-Aug-09 15:58N 35°49' E 014°33'0 0.0
2017-Aug-09 15:28N 35°49' E 014°33'0 0.0
2017-Aug-09 14:58N 35°49' E 014°33'0 0.0
2017-Aug-09 14:19N 35°49' E 014°33'0 0.0
2017-Aug-09 13:55N 35°49' E 014°33'0 0.0
2017-Aug-09 13:28N 35°49' E 014°33'0 0.0
2017-Aug-09 12:58N 35°49' E 014°33'0 0.0
2017-Aug-09 12:25N 35°49' E 014°33'0 0.0
2017-Aug-09 11:58N 35°49' E 014°33'0 0.0
2017-Aug-09 11:22N 35°49' E 014°33'0 0.0
2017-Aug-09 10:58N 35°49' E 014°33'0 0.0
2017-Aug-09 10:28N 35°49' E 014°33'0 0.0
2017-Aug-09 09:58N 35°49' E 014°33'0 0.0
2017-Aug-09 09:28N 35°49' E 014°33'0 0.0
2017-Aug-09 08:58N 35°49' E 014°33'0 0.0
2017-Aug-09 06:31N 35°49' E 014°33'0 1.5
2017-Aug-09 06:16N 35°49' E 014°33'1 3.8
2017-Aug-09 06:00N 35°49' E 014°34'3 6.9
2017-Aug-09 05:30N 35°49' E 014°38'4 7.1
2017-Aug-09 05:00N 35°50' E 014°42'3 5.5
2017-Aug-09 04:30N 35°52' E 014°45'0 0.1
2017-Aug-09 03:57N 35°52' E 014°45'0 0.1
2017-Aug-09 03:30N 35°52' E 014°45'0 0.0
2017-Aug-09 03:00N 35°52' E 014°45'0 0.0
2017-Aug-09 02:30N 35°52' E 014°45'0 0.1
2017-Aug-09 02:00N 35°52' E 014°45'2 3.3
2017-Aug-09 01:30N 35°54' E 014°45'1 1.5
2017-Aug-09 00:59N 35°55' E 014°45'0 0.0
2017-Aug-09 00:29N 35°55' E 014°45'0 0.0
2017-Aug-08 23:59N 35°55' E 014°45'0 0.0
2017-Aug-08 23:29N 35°55' E 014°45'0 0.1
2017-Aug-08 22:53N 35°55' E 014°45'0 0.1
2017-Aug-08 22:26N 35°55' E 014°45'0 0.1
2017-Aug-08 21:59N 35°55' E 014°45'0 0.0
2017-Aug-08 21:29N 35°55' E 014°45'0 0.0
2017-Aug-08 20:59N 35°55' E 014°45'0 0.0
2017-Aug-08 20:14N 35°55' E 014°45'0 0.1
2017-Aug-08 19:59N 35°55' E 014°45'0 0.0
2017-Aug-08 19:29N 35°55' E 014°45'0 0.0
2017-Aug-08 18:59N 35°55' E 014°45'0 0.0
2017-Aug-08 18:29N 35°55' E 014°45'0 0.0
2017-Aug-08 17:23N 35°55' E 014°45'0 0.1
2017-Aug-08 16:59N 35°55' E 014°45'0 0.0
2017-Aug-08 16:29N 35°55' E 014°45'0 0.0
2017-Aug-08 15:59N 35°55' E 014°45'0 0.1
2017-Aug-08 15:26N 35°55' E 014°45'0 0.1
2017-Aug-08 14:59N 35°55' E 014°45'0 0.5
2017-Aug-08 14:30N 35°55' E 014°45'1 2.7
2017-Aug-08 14:00N 35°53' E 014°46'0 0.0
2017-Aug-08 13:30N 35°53' E 014°46'0 0.0
2017-Aug-08 13:00N 35°53' E 014°46'0 0.0
2017-Aug-08 12:30N 35°53' E 014°46'0 0.0
2017-Aug-08 11:51N 35°53' E 014°46'0 0.0
2017-Aug-08 11:30N 35°53' E 014°46'0 0.0
2017-Aug-08 11:00N 35°53' E 014°46'0 0.0
2017-Aug-08 10:30N 35°53' E 014°46'0 0.0
2017-Aug-08 10:00N 35°53' E 014°46'0 0.0
2017-Aug-08 09:30N 35°53' E 014°46'1 1.9
2017-Aug-08 09:00N 35°53' E 014°45'3 6.6
2017-Aug-08 08:30N 35°54' E 014°41'3 6.7
2017-Aug-08 08:00N 35°55' E 014°37'3 7.0
2017-Aug-08 07:30N 35°54' E 014°33'1 0.3
2017-Aug-08 04:00N 35°54' E 014°31'4 7.0
2017-Aug-08 03:30N 35°54' E 014°36'4 7.4
2017-Aug-08 03:00N 35°55' E 014°40'4 6.9
2017-Aug-08 02:30N 35°55' E 014°44'4 7.6
2017-Aug-08 02:00N 35°56' E 014°49'1 2.4
2017-Aug-08 01:27N 35°56' E 014°51'0 0.0
2017-Aug-08 01:00N 35°56' E 014°51'0 0.0
2017-Aug-08 00:30N 35°56' E 014°51'0 0.0
2017-Aug-08 00:00N 35°56' E 014°51'0 0.0
2017-Aug-07 23:30N 35°56' E 014°51'0 0.0
2017-Aug-07 22:57N 35°56' E 014°51'0 0.0
2017-Aug-07 22:27N 35°56' E 014°51'0 0.0
2017-Aug-07 22:00N 35°56' E 014°51'0 0.0
2017-Aug-07 21:30N 35°56' E 014°51'0 0.0
2017-Aug-07 21:00N 35°56' E 014°51'0 0.1
2017-Aug-07 20:30N 35°56' E 014°51'0 0.0
2017-Aug-07 20:00N 35°56' E 014°51'0 0.0
2017-Aug-07 19:30N 35°56' E 014°51'0 0.0
2017-Aug-07 19:00N 35°56' E 014°51'0 0.0
2017-Aug-07 18:30N 35°56' E 014°51'0 0.0
2017-Aug-07 18:00N 35°56' E 014°51'0 0.1
2017-Aug-07 17:30N 35°56' E 014°51'1 1.1
2017-Aug-07 16:59N 35°56' E 014°50'4 7.7
2017-Aug-07 16:30N 35°53' E 014°47'4 7.9
2017-Aug-07 16:00N 35°51' E 014°43'4 7.8
2017-Aug-07 15:30N 35°49' E 014°39'4 7.8
2017-Aug-07 15:01N 35°49' E 014°34'1 0.3
2017-Aug-07 09:57N 35°49' E 014°32'0 0.0
2017-Aug-07 09:27N 35°49' E 014°32'0 0.1
2017-Aug-07 09:00N 35°49' E 014°32'1 1.8
2017-Aug-07 08:30N 35°49' E 014°33'4 7.4
2017-Aug-07 08:00N 35°49' E 014°38'4 7.8
2017-Aug-07 07:30N 35°50' E 014°42'4 7.9
2017-Aug-07 07:00N 35°53' E 014°46'1 2.9
2017-Aug-07 06:30N 35°54' E 014°47'0 0.0
2017-Aug-07 05:57N 35°54' E 014°47'0 0.0
2017-Aug-07 05:30N 35°54' E 014°47'0 0.0
2017-Aug-07 04:57N 35°54' E 014°47'0 0.0
2017-Aug-07 04:30N 35°54' E 014°47'  
Track history (hours):
 
Tides and Currents Weather Stations Pressure Air Temp Water Temp Dewpoint Dewpoint Depression Visibility Wind Speed Wind Dir Waves Ship Positions

M/T Vemaoil Xi

Last reported at 2017-Aug-17 04:26 UTC. Time now 2017-Aug-17 06:04 UTC.
Position N 35°49' E 014°33'.

Length 105 m; draft 4.8 m.

Type: Tanker. MMSI: 215631000.

Date/timePositionNaut miles runAvg speedWind from/ knotsBaromVisibWave heightAir tempDewpointWater temp
2017-Aug-17 04:26N 35°49' E 014°33'1 2.5
2017-Aug-17 04:00N 35°49' E 014°34'1 2.5
2017-Aug-17 03:30N 35°49' E 014°35'0 0.0
2017-Aug-17 03:00N 35°49' E 014°35'0 0.0
2017-Aug-17 02:30N 35°49' E 014°35'0 0.0
2017-Aug-17 01:57N 35°49' E 014°35'0 0.0
2017-Aug-17 01:30N 35°49' E 014°35'0 0.0
2017-Aug-17 01:00N 35°49' E 014°35'0 0.0
2017-Aug-17 00:30N 35°49' E 014°35'0 0.0
2017-Aug-17 00:00N 35°49' E 014°35'0 0.0
2017-Aug-16 23:30N 35°49' E 014°35'0 0.0
2017-Aug-16 23:00N 35°49' E 014°35'0 0.0
2017-Aug-16 22:30N 35°49' E 014°35'0 0.0
2017-Aug-16 21:57N 35°49' E 014°35'0 0.0
2017-Aug-16 21:30N 35°49' E 014°36'0 0.1
2017-Aug-16 21:00N 35°49' E 014°36'0 0.1
2017-Aug-16 20:30N 35°49' E 014°36'1 1.9
2017-Aug-16 20:00N 35°49' E 014°37'4 7.3
2017-Aug-16 19:30N 35°50' E 014°41'4 7.8
2017-Aug-16 19:00N 35°51' E 014°45'1 0.9
2017-Aug-16 17:44N 35°52' E 014°47'0 0.0
2017-Aug-16 17:17N 35°52' E 014°47'0 0.0
2017-Aug-16 16:59N 35°52' E 014°47'0 0.1
2017-Aug-16 16:08N 35°52' E 014°47'0 0.2
2017-Aug-16 15:59N 35°52' E 014°47'0 0.2
2017-Aug-16 15:26N 35°52' E 014°47'0 0.1
2017-Aug-16 14:59N 35°52' E 014°47'0 0.0
2017-Aug-16 14:23N 35°52' E 014°47'0 0.1
2017-Aug-16 13:53N 35°52' E 014°47'0 0.0
2017-Aug-16 13:29N 35°52' E 014°47'0 0.0
2017-Aug-16 12:53N 35°52' E 014°47'0 0.0
2017-Aug-16 12:29N 35°52' E 014°47'0 0.0
2017-Aug-16 11:59N 35°52' E 014°47'0 0.0
2017-Aug-16 11:29N 35°52' E 014°47'0 0.0
2017-Aug-16 10:59N 35°52' E 014°47'0 0.0
2017-Aug-16 10:26N 35°52' E 014°47'0 0.0
2017-Aug-16 09:59N 35°52' E 014°47'0 0.0
2017-Aug-16 09:29N 35°52' E 014°47'0 0.0
2017-Aug-16 08:56N 35°52' E 014°47'0 0.0
2017-Aug-16 08:29N 35°52' E 014°47'0 0.0
2017-Aug-16 07:59N 35°52' E 014°47'0 0.0
2017-Aug-16 07:29N 35°52' E 014°47'0 0.0
2017-Aug-16 06:59N 35°52' E 014°47'0 0.0
2017-Aug-16 06:26N 35°52' E 014°47'0 0.1
2017-Aug-16 05:59N 35°52' E 014°47'0 1.0
2017-Aug-16 05:30N 35°52' E 014°46'1 2.1
2017-Aug-16 04:53N 35°52' E 014°45'0 0.0
2017-Aug-16 04:23N 35°52' E 014°45'0 0.0
2017-Aug-16 03:59N 35°52' E 014°45'0 0.0
2017-Aug-16 00:26N 35°52' E 014°45'0 0.0
2017-Aug-15 23:59N 35°52' E 014°45'0 0.0
2017-Aug-15 22:53N 35°52' E 014°45'0 0.0
2017-Aug-15 21:47N 35°52' E 014°45'0 0.0
2017-Aug-15 21:26N 35°52' E 014°45'0 0.0
2017-Aug-15 20:59N 35°52' E 014°45'0 0.1
2017-Aug-15 20:29N 35°52' E 014°44'0 0.0
2017-Aug-15 19:35N 35°52' E 014°45'0 0.1
2017-Aug-15 19:29N 35°52' E 014°45'0 0.0
2017-Aug-15 18:59N 35°52' E 014°45'0 0.0
2017-Aug-15 18:29N 35°52' E 014°45'0 0.0
2017-Aug-15 17:59N 35°52' E 014°45'0 0.0
2017-Aug-15 17:29N 35°52' E 014°45'0 0.0
2017-Aug-15 16:59N 35°52' E 014°45'0 0.0
2017-Aug-15 16:26N 35°52' E 014°45'0 0.0
2017-Aug-15 15:20N 35°52' E 014°45'0 0.0
2017-Aug-15 14:08N 35°52' E 014°44'0 0.1
2017-Aug-15 13:59N 35°52' E 014°44'0 0.0
2017-Aug-15 13:29N 35°52' E 014°44'0 0.0
2017-Aug-15 12:08N 35°52' E 014°44'0 0.1
2017-Aug-15 11:59N 35°52' E 014°44'0 0.0
2017-Aug-15 11:17N 35°52' E 014°44'0 0.1
2017-Aug-15 10:35N 35°52' E 014°45'0 0.4
2017-Aug-15 10:24N 35°52' E 014°45'2 4.6
2017-Aug-15 10:00N 35°52' E 014°47'1 0.3
2017-Aug-15 06:26N 35°52' E 014°48'0 0.0
2017-Aug-15 05:43N 35°53' E 014°48'0 0.1
2017-Aug-15 05:29N 35°53' E 014°48'0 0.0
2017-Aug-15 04:26N 35°52' E 014°48'1 2.6
2017-Aug-15 03:58N 35°51' E 014°47'2 1.7
2017-Aug-15 03:02N 35°50' E 014°46'0 5.5
2017-Aug-15 03:00N 35°50' E 014°46'4 6.5
2017-Aug-15 02:25N 35°49' E 014°41'5 3.7
2017-Aug-15 01:10N 35°49' E 014°35'0 0.0
2017-Aug-14 20:07N 35°49' E 014°35'0 0.2
2017-Aug-14 20:00N 35°49' E 014°35'2 2.7
2017-Aug-14 19:26N 35°50' E 014°36'3 6.9
2017-Aug-14 18:59N 35°53' E 014°37'3 7.0
2017-Aug-14 18:30N 35°55' E 014°41'3 4.9
2017-Aug-14 17:56N 35°54' E 014°45'0 0.0
2017-Aug-14 17:30N 35°54' E 014°45'0 0.0
2017-Aug-14 16:59N 35°54' E 014°45'0 0.0
2017-Aug-14 16:23N 35°54' E 014°45'0 0.0
2017-Aug-14 15:56N 35°54' E 014°45'0 0.0
2017-Aug-14 15:28N 35°54' E 014°45'0 0.0
2017-Aug-14 14:22N 35°54' E 014°45'0 0.0
2017-Aug-14 13:46N 35°54' E 014°45'0 0.1
2017-Aug-14 13:27N 35°54' E 014°45'2 2.8
2017-Aug-14 12:50N 35°53' E 014°44'2 6.4
2017-Aug-14 12:30N 35°51' E 014°42'3 6.1
2017-Aug-14 11:59N 35°49' E 014°39'5 0.3
2017-Aug-13 17:18N 35°49' E 014°33'1 0.1
2017-Aug-13 06:57N 35°49' E 014°34'2 0.1
2017-Aug-12 18:17N 35°49' E 014°36'0 0.0
2017-Aug-12 17:59N 35°49' E 014°36'0 0.0
2017-Aug-12 17:29N 35°49' E 014°36'0 0.2
2017-Aug-12 16:56N 35°49' E 014°36'1 0.5
2017-Aug-12 15:43N 35°49' E 014°35'0 0.0
2017-Aug-12 14:46N 35°49' E 014°35'0 0.0
2017-Aug-12 14:22N 35°49' E 014°35'0 0.0
2017-Aug-12 13:58N 35°49' E 014°35'0 0.0
2017-Aug-12 13:28N 35°49' E 014°35'1 0.5
2017-Aug-12 11:36N 35°49' E 014°36'0 0.0
2017-Aug-12 10:39N 35°49' E 014°36'0 0.0
2017-Aug-12 10:27N 35°49' E 014°36'0 0.0
2017-Aug-12 09:51N 35°49' E 014°36'0 0.0
2017-Aug-12 09:27N 35°49' E 014°36'0 0.0
2017-Aug-12 06:30N 35°49' E 014°36'0 0.0
2017-Aug-12 06:00N 35°49' E 014°36'0 0.0
2017-Aug-12 05:30N 35°49' E 014°36'0 0.1
2017-Aug-12 05:00N 35°49' E 014°36'0 0.1
2017-Aug-12 04:30N 35°49' E 014°36'0 0.1
2017-Aug-12 04:00N 35°50' E 014°36'1 1.1
2017-Aug-12 03:30N 35°49' E 014°36'0 0.8
2017-Aug-12 02:58N 35°49' E 014°35'0 0.0
2017-Aug-12 02:25N 35°49' E 014°35'0 0.0
2017-Aug-12 01:19N 35°49' E 014°35'0 0.1
2017-Aug-12 00:58N 35°49' E 014°35'0 0.1
2017-Aug-12 00:28N 35°49' E 014°35'1 0.2
2017-Aug-11 21:21N 35°49' E 014°36'0 0.7
2017-Aug-11 20:47N 35°50' E 014°36'0 0.1
2017-Aug-11 20:29N 35°50' E 014°36'0 0.1
2017-Aug-11 19:59N 35°50' E 014°36'0 0.1
2017-Aug-11 19:23N 35°50' E 014°36'0 0.1
2017-Aug-11 18:59N 35°50' E 014°36'0 0.1
2017-Aug-11 18:29N 35°50' E 014°36'0 0.1
2017-Aug-11 17:59N 35°50' E 014°36'0 0.2
2017-Aug-11 17:26N 35°50' E 014°36'0 1.0
2017-Aug-11 17:00N 35°50' E 014°36'0 0.8
2017-Aug-11 16:25N 35°50' E 014°36'0 0.0
2017-Aug-11 15:58N 35°50' E 014°36'0 0.0
2017-Aug-11 15:28N 35°50' E 014°36'1 1.1
2017-Aug-11 15:01N 35°50' E 014°36'3 6.7
2017-Aug-11 14:30N 35°50' E 014°41'7 6.7
2017-Aug-11 13:31N 35°53' E 014°48'0 0.3
2017-Aug-11 12:56N 35°53' E 014°48'0 0.2
2017-Aug-11 12:30N 35°53' E 014°48'3 5.2
2017-Aug-11 12:00N 35°51' E 014°46'3 6.2
2017-Aug-11 11:30N 35°49' E 014°42'3 6.5
2017-Aug-11 11:00N 35°49' E 014°39'4 6.7
2017-Aug-11 10:28N 35°48' E 014°34'1 0.1
2017-Aug-10 20:50N 35°49' E 014°33'1 1.5
2017-Aug-10 20:28N 35°49' E 014°33'2 4.5
2017-Aug-10 20:00N 35°49' E 014°36'2 3.9
2017-Aug-10 19:30N 35°49' E 014°38'4 7.4
2017-Aug-10 19:00N 35°51' E 014°42'4 7.4
2017-Aug-10 18:30N 35°53' E 014°46'1 1.0
2017-Aug-10 17:58N 35°53' E 014°47'0 0.0
2017-Aug-10 17:28N 35°53' E 014°47'0 0.0
2017-Aug-10 16:58N 35°53' E 014°47'0 0.0
2017-Aug-10 16:28N 35°53' E 014°47'0 0.0
2017-Aug-10 15:55N 35°53' E 014°47'0 0.0
2017-Aug-10 15:28N 35°53' E 014°47'0 0.0
2017-Aug-10 14:58N 35°53' E 014°47'0 0.0
2017-Aug-10 14:25N 35°53' E 014°47'0 0.0
2017-Aug-10 13:55N 35°53' E 014°47'0 0.0
2017-Aug-10 13:28N 35°53' E 014°47'0 0.0
2017-Aug-10 12:58N 35°53' E 014°47'0 0.0
2017-Aug-10 12:28N 35°53' E 014°47'0 0.0
2017-Aug-10 11:58N 35°53' E 014°47'0 0.0
2017-Aug-10 11:28N 35°53' E 014°47'0 0.0
2017-Aug-10 10:58N 35°53' E 014°47'1 2.0
2017-Aug-10 10:30N 35°52' E 014°46'4 8.0
2017-Aug-10 10:00N 35°50' E 014°42'4 8.1
2017-Aug-10 09:30N 35°49' E 014°37'4 7.2
2017-Aug-10 09:00N 35°49' E 014°33'0 1.0
2017-Aug-10 08:30N 35°49' E 014°32'0 0.0
2017-Aug-10 07:57N 35°49' E 014°32'0 0.0
2017-Aug-10 07:30N 35°49' E 014°32'0 0.0
2017-Aug-10 06:48N 35°49' E 014°32'0 0.0
2017-Aug-10 06:21N 35°49' E 014°32'0 0.1
2017-Aug-10 06:00N 35°49' E 014°32'0 0.0
2017-Aug-10 01:27N 35°49' E 014°32'2 4.6
2017-Aug-10 01:00N 35°49' E 014°35'1 1.1
2017-Aug-10 00:29N 35°49' E 014°35'0 0.0
2017-Aug-09 23:17N 35°49' E 014°35'0 0.0
2017-Aug-09 22:44N 35°49' E 014°35'0 0.0
2017-Aug-09 22:29N 35°49' E 014°35'0 0.0
2017-Aug-09 21:59N 35°49' E 014°35'0 0.0
2017-Aug-09 21:29N 35°49' E 014°35'0 0.0
2017-Aug-09 20:59N 35°49' E 014°35'0 0.0
2017-Aug-09 20:26N 35°49' E 014°35'0 0.0
2017-Aug-09 19:59N 35°49' E 014°35'0 0.0
2017-Aug-09 19:29N 35°49' E 014°35'0 0.0
2017-Aug-09 18:59N 35°49' E 014°35'0 0.1
2017-Aug-09 18:29N 35°49' E 014°35'1 1.8
2017-Aug-09 18:00N 35°49' E 014°34'1 2.5
2017-Aug-09 17:28N 35°49' E 014°33'0 0.0
2017-Aug-09 16:58N 35°49' E 014°33'0 0.0
2017-Aug-09 16:28N 35°49' E 014°33'0 0.0
2017-Aug-09 15:58N 35°49' E 014°33'0 0.0
2017-Aug-09 15:28N 35°49' E 014°33'0 0.0
2017-Aug-09 14:58N 35°49' E 014°33'0 0.0
2017-Aug-09 14:19N 35°49' E 014°33'0 0.0
2017-Aug-09 13:55N 35°49' E 014°33'0 0.0
2017-Aug-09 13:28N 35°49' E 014°33'0 0.0
2017-Aug-09 12:58N 35°49' E 014°33'0 0.0
2017-Aug-09 12:25N 35°49' E 014°33'0 0.0
2017-Aug-09 11:58N 35°49' E 014°33'0 0.0
2017-Aug-09 11:22N 35°49' E 014°33'0 0.0
2017-Aug-09 10:58N 35°49' E 014°33'0 0.0
2017-Aug-09 10:28N 35°49' E 014°33'0 0.0
2017-Aug-09 09:58N 35°49' E 014°33'0 0.0
2017-Aug-09 09:28N 35°49' E 014°33'0 0.0
2017-Aug-09 08:58N 35°49' E 014°33'0 0.0
2017-Aug-09 06:31N 35°49' E 014°33'0 1.5
2017-Aug-09 06:16N 35°49' E 014°33'1 3.8
2017-Aug-09 06:00N 35°49' E 014°34'3 6.9
2017-Aug-09 05:30N 35°49' E 014°38'4 7.1
2017-Aug-09 05:00N 35°50' E 014°42'3 5.5
2017-Aug-09 04:30N 35°52' E 014°45'0 0.1
2017-Aug-09 03:57N 35°52' E 014°45'0 0.1
2017-Aug-09 03:30N 35°52' E 014°45'0 0.0
2017-Aug-09 03:00N 35°52' E 014°45'0 0.0
2017-Aug-09 02:30N 35°52' E 014°45'0 0.1
2017-Aug-09 02:00N 35°52' E 014°45'2 3.3
2017-Aug-09 01:30N 35°54' E 014°45'1 1.5
2017-Aug-09 00:59N 35°55' E 014°45'0 0.0
2017-Aug-09 00:29N 35°55' E 014°45'0 0.0
2017-Aug-08 23:59N 35°55' E 014°45'0 0.0
2017-Aug-08 23:29N 35°55' E 014°45'0 0.1
2017-Aug-08 22:53N 35°55' E 014°45'0 0.1
2017-Aug-08 22:26N 35°55' E 014°45'0 0.1
2017-Aug-08 21:59N 35°55' E 014°45'0 0.0
2017-Aug-08 21:29N 35°55' E 014°45'0 0.0
2017-Aug-08 20:59N 35°55' E 014°45'0 0.0
2017-Aug-08 20:14N 35°55' E 014°45'0 0.1
2017-Aug-08 19:59N 35°55' E 014°45'0 0.0
2017-Aug-08 19:29N 35°55' E 014°45'0 0.0
2017-Aug-08 18:59N 35°55' E 014°45'0 0.0
2017-Aug-08 18:29N 35°55' E 014°45'0 0.0
2017-Aug-08 17:23N 35°55' E 014°45'0 0.1
2017-Aug-08 16:59N 35°55' E 014°45'0 0.0
2017-Aug-08 16:29N 35°55' E 014°45'0 0.0
2017-Aug-08 15:59N 35°55' E 014°45'0 0.1
2017-Aug-08 15:26N 35°55' E 014°45'0 0.1
2017-Aug-08 14:59N 35°55' E 014°45'0 0.5
2017-Aug-08 14:30N 35°55' E 014°45'1 2.7
2017-Aug-08 14:00N 35°53' E 014°46'0 0.0
2017-Aug-08 13:30N 35°53' E 014°46'0 0.0
2017-Aug-08 13:00N 35°53' E 014°46'0 0.0
2017-Aug-08 12:30N 35°53' E 014°46'0 0.0
2017-Aug-08 11:51N 35°53' E 014°46'0 0.0
2017-Aug-08 11:30N 35°53' E 014°46'0 0.0
2017-Aug-08 11:00N 35°53' E 014°46'0 0.0
2017-Aug-08 10:30N 35°53' E 014°46'0 0.0
2017-Aug-08 10:00N 35°53' E 014°46'0 0.0
2017-Aug-08 09:30N 35°53' E 014°46'1 1.9
2017-Aug-08 09:00N 35°53' E 014°45'3 6.6
2017-Aug-08 08:30N 35°54' E 014°41'3 6.7
2017-Aug-08 08:00N 35°55' E 014°37'3 7.0
2017-Aug-08 07:30N 35°54' E 014°33'1 0.3
2017-Aug-08 04:00N 35°54' E 014°31'4 7.0
2017-Aug-08 03:30N 35°54' E 014°36'4 7.4
2017-Aug-08 03:00N 35°55' E 014°40'4 6.9
2017-Aug-08 02:30N 35°55' E 014°44'4 7.6
2017-Aug-08 02:00N 35°56' E 014°49'1 2.4
2017-Aug-08 01:27N 35°56' E 014°51'0 0.0
2017-Aug-08 01:00N 35°56' E 014°51'0 0.0
2017-Aug-08 00:30N 35°56' E 014°51'0 0.0
2017-Aug-08 00:00N 35°56' E 014°51'0 0.0
2017-Aug-07 23:30N 35°56' E 014°51'0 0.0
2017-Aug-07 22:57N 35°56' E 014°51'0 0.0
2017-Aug-07 22:27N 35°56' E 014°51'0 0.0
2017-Aug-07 22:00N 35°56' E 014°51'0 0.0
2017-Aug-07 21:30N 35°56' E 014°51'0 0.0
2017-Aug-07 21:00N 35°56' E 014°51'0 0.1
2017-Aug-07 20:30N 35°56' E 014°51'0 0.0
2017-Aug-07 20:00N 35°56' E 014°51'0 0.0
2017-Aug-07 19:30N 35°56' E 014°51'0 0.0
2017-Aug-07 19:00N 35°56' E 014°51'0 0.0
2017-Aug-07 18:30N 35°56' E 014°51'0 0.0
2017-Aug-07 18:00N 35°56' E 014°51'0 0.1
2017-Aug-07 17:30N 35°56' E 014°51'1 1.1
2017-Aug-07 16:59N 35°56' E 014°50'4 7.7
2017-Aug-07 16:30N 35°53' E 014°47'4 7.9
2017-Aug-07 16:00N 35°51' E 014°43'4 7.8
2017-Aug-07 15:30N 35°49' E 014°39'4 7.8
2017-Aug-07 15:01N 35°49' E 014°34'1 0.3
2017-Aug-07 09:57N 35°49' E 014°32'0 0.0
2017-Aug-07 09:27N 35°49' E 014°32'0 0.1
2017-Aug-07 09:00N 35°49' E 014°32'1 1.8
2017-Aug-07 08:30N 35°49' E 014°33'4 7.4
2017-Aug-07 08:00N 35°49' E 014°38'4 7.8
2017-Aug-07 07:30N 35°50' E 014°42'4 7.9
2017-Aug-07 07:00N 35°53' E 014°46'1 2.9
2017-Aug-07 06:30N 35°54' E 014°47'0 0.0
2017-Aug-07 05:57N 35°54' E 014°47'0 0.0
2017-Aug-07 05:30N 35°54' E 014°47'0 0.0
2017-Aug-07 04:57N 35°54' E 014°47'0 0.0
2017-Aug-07 04:30N 35°54' E 014°47'  

Dump ship's entire track history